Accueil
METAR-TAF:

METAR-TAF

Aéroports :

Monte Malanotte

Prato Nevoso, Italie

latitude: 44-15N, longitude: 007-48E, altitude: 1741 m

Observation

Le bulletin a été fait il y a 1 heure et 30 minutes, à 17:55 UTC
Vent 2 kt de nord-ouest
Température 0°C
Humidité 93%
Pression 1015 hPa
Visibilité: 6000 m
Nuages épars à une hauteur de 1500 ft
Nuages épars à une hauteur de 2000 ft

METAR: LIMY 161755Z 31002KT 6000 SCT015 SCT020 M00/M01 Q1015 RMK OVC VAL FOSCHIA VIS MIN 6000

Heure: 20:25 (19:25 UTC)


TAF: absent

Observations et prévisions météorologiques de plus de 4000 aéroports (messages METAR et TAF).

Les stations disponibles sont représentées par des disques jaunes et rouges sur la carte.

Passer la souris dessus pour voir le nom de la station.

Cliquer dessus pour voir les observations et prévisions météorologiques.

Pour changer de carte: cliquez sur les boutons verts avec une croix noire pour zoomer, sur le bouton vert avec un tiret pour effectuer un zoom arrière, ou sur les flèches vertes pour les cartes adjacentes.


METAR-TAF: